Time;durP1;ratioP1;P1;durP2;ratioP2;P2;SDS_P1;SDS_P2;PMS_P1;PMS_P2;Temp;Humidity;BMP_temperature;BMP_pressure;BME280_temperature;BME280_humidity;BME280_pressure;Samples;Min_cycle;Max_cycle;Signal;HPM_P1;HPM_P2
2022/05/05 00:00:01;;;;;;;3.10;2.67;;;;;;;20.25;36.92;102069.84;5035449;28;20035;-70
2022/05/05 00:02:27;;;;;;;3.00;2.53;;;;;;;20.20;36.92;102065.84;5042921;28;20491;-71
2022/05/05 00:04:52;;;;;;;3.45;2.53;;;;;;;20.15;37.03;102069.94;5039809;28;20041;-71
2022/05/05 00:07:18;;;;;;;5.28;2.97;;;;;;;20.19;37.00;102069.47;5018858;28;20059;-70
2022/05/05 00:09:43;;;;;;;3.78;2.83;;;;;;;20.17;37.10;102067.97;5038850;28;20037;-70
2022/05/05 00:14:55;;;;;;;3.78;2.50;;;;;;;20.13;37.05;102070.09;5037744;28;20033;-70
2022/05/05 00:17:21;;;;;;;3.80;2.70;;;;;;;20.15;36.98;102065.50;5033809;28;20431;-69
2022/05/05 00:19:46;;;;;;;3.10;2.60;;;;;;;20.12;37.14;102073.72;5017367;28;20052;-70
2022/05/05 00:22:12;;;;;;;3.38;2.47;;;;;;;20.15;37.04;102072.59;5040809;28;20052;-70
2022/05/05 00:24:38;;;;;;;3.03;2.50;;;;;;;20.10;37.15;102075.66;5041670;28;20041;-69
2022/05/05 00:27:06;;;;;;;2.95;2.53;;;;;;;20.06;37.33;102071.66;5018985;28;20108;-70
2022/05/05 00:29:31;;;;;;;3.90;2.80;;;;;;;19.99;37.53;102062.69;5015694;28;20133;-69
2022/05/05 00:31:57;;;;;;;3.55;2.50;;;;;;;20.05;37.24;102063.88;5019704;28;20419;-70
2022/05/05 00:34:22;;;;;;;3.90;2.60;;;;;;;20.01;37.27;102068.66;5041023;28;20049;-71
2022/05/05 00:36:48;;;;;;;3.90;3.05;;;;;;;20.10;37.27;102064.25;5033789;28;20044;-70
2022/05/05 00:39:14;;;;;;;4.22;2.63;;;;;;;20.06;37.14;102060.25;5036933;28;20041;-70
2022/05/05 00:41:42;;;;;;;3.70;2.70;;;;;;;20.06;37.19;102068.19;5020851;28;20048;-70
2022/05/05 00:44:09;;;;;;;3.35;2.40;;;;;;;20.01;37.10;102058.09;5033879;28;20042;-70
2022/05/05 00:46:35;;;;;;;4.55;2.70;;;;;;;20.06;37.14;102061.09;5040504;28;20052;-70
2022/05/05 00:49:01;;;;;;;4.18;2.72;;;;;;;20.06;37.17;102068.19;5035106;28;20040;-70
2022/05/05 00:51:27;;;;;;;4.88;3.20;;;;;;;20.03;37.20;102068.50;5034145;28;20512;-70
2022/05/05 00:53:54;;;;;;;3.70;2.50;;;;;;;19.97;37.27;102067.31;5039901;28;20045;-70
2022/05/05 00:56:22;;;;;;;3.50;2.50;;;;;;;19.98;37.36;102070.78;5038269;28;20171;-70
2022/05/05 00:58:48;;;;;;;3.58;2.65;;;;;;;19.95;37.31;102065.78;5018632;28;20729;-70
2022/05/05 01:01:21;;;;;;;4.20;2.97;;;;;;;19.97;37.22;102061.19;5039886;28;20474;-69
2022/05/05 01:03:48;;;;;;;3.85;2.67;;;;;;;19.98;37.28;102068.13;5040202;28;20043;-70
2022/05/05 01:06:14;;;;;;;3.72;2.55;;;;;;;19.95;37.34;102071.91;5023922;28;20483;-70
2022/05/05 01:08:40;;;;;;;4.93;2.90;;;;;;;19.95;37.47;102068.44;5034581;28;20033;-70
2022/05/05 01:11:07;;;;;;;4.97;2.72;;;;;;;19.94;37.30;102072.91;5020851;28;20033;-69
2022/05/05 01:13:32;;;;;;;3.53;2.60;;;;;;;19.92;37.32;102066.91;5021205;28;20599;-70
2022/05/05 01:15:59;;;;;;;5.13;2.80;;;;;;;19.94;37.21;102075.53;5032311;28;20048;-70
2022/05/05 01:18:26;;;;;;;5.55;2.90;;;;;;;19.92;37.39;102072.19;5044452;28;20044;-70
2022/05/05 01:20:54;;;;;;;4.78;2.83;;;;;;;19.91;37.39;102073.16;5037881;28;20052;-70
2022/05/05 01:23:20;;;;;;;3.42;2.67;;;;;;;19.94;37.44;102069.41;5049465;28;20064;-70
2022/05/05 01:28:33;;;;;;;3.13;2.70;;;;;;;19.93;37.38;102068.59;5036502;28;20046;-70
2022/05/05 01:30:59;;;;;;;3.75;2.60;;;;;;;19.94;37.28;102075.53;5035584;28;20517;-70
2022/05/05 01:33:27;;;;;;;3.47;2.60;;;;;;;20.01;36.99;102068.66;5034945;28;20041;-70
2022/05/05 01:35:55;;;;;;;2.47;2.20;;;;;;;19.94;37.24;102064.13;5037245;28;20036;-69
2022/05/05 01:38:23;;;;;;;3.85;2.47;;;;;;;19.87;37.51;102063.88;5037243;28;20048;-70
2022/05/05 01:40:49;;;;;;;3.67;2.50;;;;;;;19.89;37.18;102059.28;5036353;28;20126;-70
2022/05/05 01:43:16;;;;;;;3.47;2.60;;;;;;;19.85;37.36;102071.97;5033558;28;20033;-70
2022/05/05 01:45:43;;;;;;;4.60;2.75;;;;;;;19.88;37.37;102081.41;5034729;28;20114;-70
2022/05/05 01:48:09;;;;;;;3.33;2.53;;;;;;;19.98;37.19;102082.19;5028228;28;20040;-71
2022/05/05 01:50:34;;;;;;;4.32;2.70;;;;;;;20.00;37.19;102082.84;5038443;28;20036;-70
2022/05/05 01:53:01;;;;;;;6.43;2.42;;;;;;;20.03;36.99;102081.72;5036370;28;20499;-70
2022/05/05 01:55:27;;;;;;;3.25;2.45;;;;;;;19.92;37.26;102078.31;5037190;28;20398;-70
2022/05/05 01:57:54;;;;;;;3.63;2.63;;;;;;;19.96;37.29;102092.09;5038349;28;20044;-70
2022/05/05 02:00:20;;;;;;;4.38;2.60;;;;;;;20.01;37.25;102092.44;5032169;28;20032;-70
2022/05/05 02:02:46;;;;;;;2.92;2.45;;;;;;;19.95;37.32;102092.22;5036416;28;20041;-70
2022/05/05 02:05:13;;;;;;;4.72;2.88;;;;;;;19.97;37.30;102096.38;5035509;28;20154;-70
2022/05/05 02:07:40;;;;;;;3.85;2.63;;;;;;;19.96;37.33;102099.19;5035212;28;20048;-70
2022/05/05 02:10:08;;;;;;;3.38;2.60;;;;;;;19.90;37.35;102100.59;5041326;28;20382;-70
2022/05/05 02:12:38;;;;;;;3.20;2.60;;;;;;;19.95;37.41;102097.53;5037171;28;20461;-70
2022/05/05 02:15:08;;;;;;;3.33;2.40;;;;;;;19.94;37.40;102098.50;5035704;28;20038;-70
2022/05/05 02:17:35;;;;;;;5.82;2.67;;;;;;;20.01;37.15;102103.03;5016292;28;20559;-70
2022/05/05 02:20:02;;;;;;;3.58;2.50;;;;;;;20.01;37.41;102110.97;5040876;28;20049;-70
2022/05/05 02:22:28;;;;;;;3.42;2.60;;;;;;;20.02;37.26;102106.50;5037758;28;20045;-70
2022/05/05 02:24:54;;;;;;;3.65;2.47;;;;;;;19.99;37.29;102107.63;5018256;28;20488;-72
2022/05/05 02:27:19;;;;;;;6.38;2.80;;;;;;;19.97;37.17;102109.59;5036102;28;20076;-71
2022/05/05 02:29:46;;;;;;;5.10;2.60;;;;;;;19.97;37.29;102098.19;5038169;28;20025;-72
2022/05/05 02:32:12;;;;;;;4.05;2.70;;;;;;;19.92;37.38;102104.75;5035955;28;20040;-72
2022/05/05 02:34:38;;;;;;;5.65;2.40;;;;;;;19.96;37.38;102107.13;5035753;28;20564;-70
2022/05/05 02:39:48;;;;;;;3.15;2.58;;;;;;;19.92;37.40;102111.84;5036378;28;20120;-71
2022/05/05 02:42:14;;;;;;;4.40;2.63;;;;;;;19.86;37.45;102096.59;5036088;28;20158;-72
2022/05/05 02:44:39;;;;;;;4.07;2.63;;;;;;;19.83;37.57;102108.28;5022987;28;20043;-71
2022/05/05 02:47:05;;;;;;;3.75;2.67;;;;;;;19.91;37.45;102112.81;5040731;28;20077;-72
2022/05/05 02:49:31;;;;;;;2.90;2.50;;;;;;;19.84;37.58;102109.97;5034859;28;20029;-72
2022/05/05 02:51:56;;;;;;;3.13;2.60;;;;;;;19.82;37.50;102101.34;5038343;28;20045;-72
2022/05/05 02:57:06;;;;;;;2.65;2.42;;;;;;;19.92;37.37;102103.91;5035371;28;20040;-72
2022/05/05 02:59:31;;;;;;;3.67;2.55;;;;;;;19.90;37.31;102103.22;5036509;28;20033;-72
2022/05/05 03:01:58;;;;;;;3.63;2.63;;;;;;;19.90;37.29;102104.06;5028112;28;20472;-72
2022/05/05 03:04:24;;;;;;;4.07;2.33;;;;;;;19.94;37.23;102106.44;5036717;28;20048;-72
2022/05/05 03:06:49;;;;;;;2.72;2.40;;;;;;;19.92;37.33;102102.09;5035614;28;20738;-72
2022/05/05 03:09:15;;;;;;;2.88;2.20;;;;;;;19.95;37.31;102108.09;5044596;28;20036;-72
2022/05/05 03:11:40;;;;;;;5.10;2.90;;;;;;;19.85;37.53;102108.97;5041310;28;20586;-72
2022/05/05 03:14:06;;;;;;;3.83;2.95;;;;;;;19.81;37.50;102097.03;5040293;28;20625;-71
2022/05/05 03:16:31;;;;;;;3.40;2.50;;;;;;;19.85;37.54;102106.34;5042974;28;20037;-72
2022/05/05 03:18:57;;;;;;;2.53;2.30;;;;;;;19.85;37.37;102114.25;5040355;28;20077;-72
2022/05/05 03:21:22;;;;;;;3.33;2.50;;;;;;;19.84;37.33;102104.66;5035902;28;20491;-70
2022/05/05 03:23:48;;;;;;;3.08;2.47;;;;;;;19.85;37.39;102119.56;5038894;28;20051;-70
2022/05/05 03:26:13;;;;;;;3.20;2.35;;;;;;;19.90;37.34;102116.44;5034210;28;20073;-70
2022/05/05 03:28:39;;;;;;;2.88;2.45;;;;;;;19.91;37.50;102121.59;5021468;28;20064;-70
2022/05/05 03:31:06;;;;;;;3.47;2.60;;;;;;;19.86;37.50;102113.28;5042764;28;20052;-70
2022/05/05 03:33:32;;;;;;;3.53;2.70;;;;;;;19.83;37.44;102113.59;5040959;28;20045;-70
2022/05/05 03:35:58;;;;;;;3.10;2.78;;;;;;;19.79;37.52;102122.78;5041887;28;20035;-71
2022/05/05 03:38:24;;;;;;;5.18;3.20;;;;;;;19.81;37.45;102125.28;5039870;28;20373;-72
2022/05/05 03:40:51;;;;;;;3.67;2.50;;;;;;;19.77;37.49;102116.81;5037372;28;20594;-72
2022/05/05 03:43:17;;;;;;;3.20;2.50;;;;;;;19.78;37.54;102121.13;5053101;28;20064;-69
2022/05/05 03:45:42;;;;;;;4.93;2.42;;;;;;;19.74;37.46;102117.09;5042339;28;20142;-69
2022/05/05 03:48:09;;;;;;;3.15;2.55;;;;;;;19.78;37.34;102122.94;5042246;28;21004;-70
2022/05/05 03:50:35;;;;;;;3.17;2.47;;;;;;;19.76;37.67;102116.97;5037574;28;20041;-70
2022/05/05 03:53:00;;;;;;;4.53;2.65;;;;;;;19.75;37.56;102128.50;5034503;28;20044;-69
2022/05/05 03:55:26;;;;;;;4.13;2.70;;;;;;;19.74;37.57;102124.19;5022990;28;20551;-70
2022/05/05 03:57:52;;;;;;;3.78;2.35;;;;;;;19.81;37.39;102133.22;5039701;28;20072;-70
2022/05/05 04:00:19;;;;;;;2.70;2.40;;;;;;;19.74;37.59;102132.13;5038814;28;20772;-70
2022/05/05 04:03:30;;;;;;;3.88;2.80;;;;;;;19.72;37.66;102136.72;5041668;28;20194;-69
2022/05/05 04:05:30;;;;;;;3.70;2.25;;;;;;;19.71;37.49;102127.97;5039624;28;20041;-70
2022/05/05 04:07:55;;;;;;;4.35;2.50;;;;;;;19.67;37.59;102141.63;5022959;28;20029;-69
2022/05/05 04:10:21;;;;;;;3.45;2.30;;;;;;;19.66;37.50;102142.63;5031053;28;20030;-69
2022/05/05 04:12:47;;;;;;;3.20;2.85;;;;;;;19.68;37.58;102145.94;5038883;28;20075;-69
2022/05/05 04:15:12;;;;;;;2.60;2.40;;;;;;;19.65;37.69;102144.44;5040533;28;20536;-70
2022/05/05 04:17:38;;;;;;;3.47;2.55;;;;;;;19.60;37.76;102146.69;5038579;28;20179;-69
2022/05/05 04:20:04;;;;;;;3.63;2.60;;;;;;;19.64;37.64;102150.69;5037447;28;20589;-72
2022/05/05 04:22:29;;;;;;;2.97;2.42;;;;;;;19.68;37.55;102148.59;5039120;28;20044;-72
2022/05/05 04:24:55;;;;;;;3.75;2.40;;;;;;;19.63;37.67;102153.47;5036209;28;20482;-72
2022/05/05 04:27:20;;;;;;;2.65;2.38;;;;;;;19.64;37.76;102157.78;5039128;28;20044;-72
2022/05/05 04:29:47;;;;;;;4.30;2.50;;;;;;;19.61;37.73;102153.63;5036455;28;20084;-72
2022/05/05 04:32:12;;;;;;;3.38;2.58;;;;;;;19.63;37.72;102156.13;5034293;28;20041;-72
2022/05/05 04:34:39;;;;;;;4.05;2.53;;;;;;;19.59;37.54;102158.22;5019644;28;20036;-70
2022/05/05 04:37:05;;;;;;;2.88;2.47;;;;;;;19.63;37.56;102156.97;5036966;28;20124;-72
2022/05/05 04:39:31;;;;;;;2.75;2.50;;;;;;;19.60;37.51;102150.16;5041013;28;20086;-70
2022/05/05 04:41:57;;;;;;;3.17;2.45;;;;;;;19.66;37.54;102161.13;5036248;28;20748;-70
2022/05/05 04:44:23;;;;;;;3.67;2.25;;;;;;;19.72;37.41;102171.09;5036190;28;20696;-70
2022/05/05 04:46:49;;;;;;;3.03;2.35;;;;;;;19.60;37.63;102152.81;5038707;28;20095;-70
2022/05/05 04:49:14;;;;;;;3.13;2.33;;;;;;;19.63;37.72;102164.88;5031775;28;20041;-69
2022/05/05 04:51:40;;;;;;;3.28;2.40;;;;;;;19.50;37.71;102138.75;5040275;28;20090;-70
2022/05/05 04:54:05;;;;;;;2.78;2.47;;;;;;;19.62;37.58;102176.44;5037212;28;20041;-70
2022/05/05 04:56:31;;;;;;;3.30;2.53;;;;;;;19.64;37.59;102171.84;5039909;28;20036;-70
2022/05/05 04:58:56;;;;;;;2.50;2.30;;;;;;;19.64;37.72;102173.66;5036894;28;20028;-70
2022/05/05 05:01:22;;;;;;;3.45;2.40;;;;;;;19.68;37.62;102178.47;5039927;28;20071;-69
2022/05/05 05:03:47;;;;;;;3.88;2.65;;;;;;;19.66;37.63;102176.97;5037795;28;20041;-70
2022/05/05 05:06:13;;;;;;;3.45;2.40;;;;;;;19.60;37.58;102171.28;5034386;28;20079;-70
2022/05/05 05:08:39;;;;;;;3.47;2.63;;;;;;;19.60;37.75;102178.41;5041289;28;20041;-70
2022/05/05 05:11:04;;;;;;;3.38;2.72;;;;;;;19.56;37.62;102175.19;5036839;28;20285;-70
2022/05/05 05:13:30;;;;;;;3.22;2.25;;;;;;;19.67;37.57;102173.34;5034142;28;20737;-70
2022/05/05 05:15:56;;;;;;;2.78;2.47;;;;;;;19.67;37.67;102178.63;5038183;28;20039;-70
2022/05/05 05:18:22;;;;;;;3.80;2.50;;;;;;;19.63;37.57;102175.47;5035537;28;20028;-70
2022/05/05 05:20:48;;;;;;;4.25;2.60;;;;;;;19.60;37.66;102170.47;5038030;28;20073;-69
2022/05/05 05:23:14;;;;;;;3.10;2.60;;;;;;;19.58;37.64;102175.91;5036112;28;20064;-70
2022/05/05 05:25:39;;;;;;;4.03;2.38;;;;;;;19.59;37.64;102182.00;5037992;28;20052;-70
2022/05/05 05:28:05;;;;;;;3.35;2.63;;;;;;;19.64;37.64;102192.13;5034114;28;20033;-69
2022/05/05 05:30:31;;;;;;;3.67;2.50;;;;;;;19.59;37.65;102188.13;5030558;28;20041;-70
2022/05/05 05:32:56;;;;;;;2.33;2.10;;;;;;;19.58;37.67;102191.75;5021900;28;20033;-70
2022/05/05 05:35:22;;;;;;;3.58;2.70;;;;;;;19.65;37.52;102199.91;5036502;28;20044;-69
2022/05/05 05:37:51;;;;;;;3.92;2.42;;;;;;;19.71;37.43;102199.31;5010357;28;20916;-70
2022/05/05 05:40:16;;;;;;;4.43;2.50;;;;;;;20.01;36.97;102195.56;5037894;28;20041;-70
2022/05/05 05:42:42;;;;;;;3.13;2.28;;;;;;;20.00;37.10;102199.19;5039983;28;20060;-70
2022/05/05 05:45:08;;;;;;;3.03;2.35;;;;;;;20.31;36.97;102196.25;5036546;28;21241;-70
2022/05/05 05:47:33;;;;;;;3.15;2.35;;;;;;;20.74;36.34;102204.28;5035387;28;20049;-70
2022/05/05 05:49:59;;;;;;;3.10;2.40;;;;;;;21.17;35.75;102201.78;5037167;28;20091;-68
2022/05/05 05:52:25;;;;;;;2.25;2.05;;;;;;;21.26;35.58;102201.72;5034585;28;20515;-70
2022/05/05 05:54:50;;;;;;;2.45;2.25;;;;;;;21.25;35.17;102204.53;5040576;28;20534;-69
2022/05/05 05:57:16;;;;;;;3.50;2.20;;;;;;;21.22;35.62;102191.56;5034014;28;20045;-69
2022/05/05 05:59:41;;;;;;;2.88;2.33;;;;;;;21.24;35.46;102197.53;5021429;28;20581;-70
2022/05/05 06:04:51;;;;;;;2.47;2.20;;;;;;;21.08;35.77;102198.25;5035526;28;20037;-69
2022/05/05 06:07:17;;;;;;;2.88;2.20;;;;;;;20.90;35.78;102178.91;5036273;28;20854;-70
2022/05/05 06:09:43;;;;;;;4.03;2.03;;;;;;;20.93;36.01;102205.91;5031322;28;20034;-69
2022/05/05 06:12:09;;;;;;;5.82;2.80;;;;;;;20.92;36.13;102209.56;5037341;28;20036;-70
2022/05/05 06:14:35;;;;;;;3.42;2.50;;;;;;;21.08;35.81;102203.56;5035906;28;20463;-70
2022/05/05 06:17:00;;;;;;;2.42;2.10;;;;;;;21.08;35.89;102207.03;5049054;28;20047;-69
2022/05/05 06:19:25;;;;;;;3.92;2.75;;;;;;;21.22;35.73;102216.25;5039188;28;20061;-70
2022/05/05 06:21:51;;;;;;;3.05;2.50;;;;;;;21.06;35.48;102208.19;5047308;28;20037;-70
2022/05/05 06:24:17;;;;;;;3.35;2.15;;;;;;;21.13;35.90;102199.44;5040021;28;20057;-70
2022/05/05 06:26:42;;;;;;;3.28;2.00;;;;;;;21.22;35.85;102213.59;5036650;28;20041;-70
2022/05/05 06:29:08;;;;;;;2.40;2.20;;;;;;;21.51;35.56;102220.41;5033199;28;20112;-69
2022/05/05 06:31:33;;;;;;;5.85;2.45;;;;;;;21.53;35.49;102207.81;5035072;28;20037;-70
2022/05/05 06:33:59;;;;;;;2.75;2.40;;;;;;;21.69;35.19;102215.84;5017260;28;20069;-70
2022/05/05 06:36:24;;;;;;;3.53;2.20;;;;;;;21.58;35.36;102214.34;5035675;28;20048;-70
2022/05/05 06:38:53;;;;;;;2.55;2.20;;;;;;;21.44;35.30;102217.56;5032107;28;20038;-70
2022/05/05 06:41:20;;;;;;;3.13;2.38;;;;;;;21.35;35.65;102219.31;5033459;28;20626;-69
2022/05/05 06:43:45;;;;;;;2.67;2.20;;;;;;;21.28;35.66;102213.00;5036195;28;20494;-70
2022/05/05 06:46:11;;;;;;;2.67;2.30;;;;;;;21.29;35.52;102221.78;5035119;28;20028;-69
2022/05/05 06:48:36;;;;;;;3.38;2.22;;;;;;;21.36;35.43;102223.66;5033840;28;20040;-69
2022/05/05 06:51:02;;;;;;;3.10;2.40;;;;;;;21.44;35.37;102225.50;5035343;28;20041;-69
2022/05/05 06:53:27;;;;;;;4.57;2.47;;;;;;;21.57;35.27;102227.75;5035067;28;20048;-70
2022/05/05 06:55:55;;;;;;;2.38;2.17;;;;;;;21.53;35.02;102229.03;5018027;28;20049;-70
2022/05/05 06:58:22;;;;;;;3.33;2.20;;;;;;;21.51;35.23;102231.00;5032208;28;20064;-70
2022/05/05 07:03:32;;;;;;;5.07;2.33;;;;;;;21.34;35.15;102225.59;5033579;28;20041;-70
2022/05/05 07:05:58;;;;;;;3.03;2.30;;;;;;;21.28;35.68;102226.22;5041572;28;20041;-70
2022/05/05 07:08:23;;;;;;;3.00;2.53;;;;;;;21.32;35.59;102237.34;5017523;28;20064;-70
2022/05/05 07:10:52;;;;;;;3.15;2.15;;;;;;;21.28;35.46;102236.84;5035412;28;20041;-70
2022/05/05 07:13:18;;;;;;;2.55;2.20;;;;;;;21.27;35.46;102242.28;5033270;28;20806;-70
2022/05/05 07:15:43;;;;;;;3.72;2.00;;;;;;;21.30;35.53;102241.97;5021570;28;20140;-70
2022/05/05 07:18:09;;;;;;;2.33;2.10;;;;;;;21.24;35.58;102245.22;5032251;28;20049;-69
2022/05/05 07:20:35;;;;;;;3.38;2.47;;;;;;;21.26;35.38;102249.41;5031569;28;20045;-70
2022/05/05 07:23:00;;;;;;;3.25;2.17;;;;;;;21.25;35.51;102247.75;5035043;28;20087;-70
2022/05/05 07:25:26;;;;;;;3.83;2.53;;;;;;;21.21;35.48;102256.97;5031580;28;20049;-70
2022/05/05 07:27:52;;;;;;;3.63;2.28;;;;;;;21.15;35.78;102249.63;5036150;28;20048;-69
2022/05/05 07:30:19;;;;;;;3.08;2.10;;;;;;;21.07;35.79;102258.34;5040231;28;20086;-70
2022/05/05 07:32:44;;;;;;;3.33;2.20;;;;;;;21.13;35.60;102256.88;5037345;28;20052;-69
2022/05/05 07:35:11;;;;;;;3.58;2.30;;;;;;;21.02;36.03;102250.03;5035374;28;20196;-70
2022/05/05 07:37:38;;;;;;;2.20;1.95;;;;;;;20.89;36.29;102246.94;5035466;28;20032;-69
2022/05/05 07:40:04;;;;;;;4.05;2.40;;;;;;;20.94;36.19;102249.13;5037209;28;20086;-69
2022/05/05 07:42:30;;;;;;;3.58;2.63;;;;;;;21.00;36.19;102256.44;5035505;28;20111;-69
2022/05/05 07:44:56;;;;;;;3.58;2.45;;;;;;;20.89;36.21;102252.22;5028997;28;20094;-69
2022/05/05 07:47:21;;;;;;;6.22;2.58;;;;;;;20.89;36.17;102254.03;5033274;28;20914;-69
2022/05/05 07:49:47;;;;;;;4.45;2.20;;;;;;;20.83;36.39;102246.72;5035203;28;20090;-69
2022/05/05 07:52:12;;;;;;;2.97;2.42;;;;;;;20.85;36.27;102252.69;5036450;28;20033;-69
2022/05/05 07:54:38;;;;;;;2.65;2.20;;;;;;;20.85;36.59;102258.00;5035263;28;20771;-69
2022/05/05 07:57:09;;;;;;;5.03;2.60;;;;;;;20.77;36.63;102262.22;5039945;28;20047;-69
2022/05/05 07:59:35;;;;;;;4.97;2.30;;;;;;;20.98;36.46;102267.19;5032133;28;20530;-69
2022/05/05 08:02:02;;;;;;;2.85;2.30;;;;;;;20.91;36.72;102268.78;5040744;28;20111;-69
2022/05/05 08:04:28;;;;;;;2.88;2.20;;;;;;;20.90;36.54;102263.66;5038790;28;20061;-70
2022/05/05 08:06:54;;;;;;;3.30;2.35;;;;;;;21.01;36.48;102274.03;5034043;28;20064;-70
2022/05/05 08:09:19;;;;;;;4.03;2.67;;;;;;;21.00;36.48;102267.88;5033574;28;20413;-70
2022/05/05 08:11:45;;;;;;;4.75;2.55;;;;;;;21.15;36.10;102268.16;5037970;28;20044;-69
2022/05/05 08:14:10;;;;;;;3.28;2.55;;;;;;;21.11;36.16;102280.88;5038896;28;20041;-70
2022/05/05 08:16:36;;;;;;;3.20;2.00;;;;;;;21.30;35.93;102279.06;5024473;28;20040;-70
2022/05/05 08:19:02;;;;;;;3.75;2.40;;;;;;;21.37;35.72;102280.13;5030416;28;20151;-70
2022/05/05 08:21:28;;;;;;;3.17;2.28;;;;;;;21.39;35.45;102284.28;5015851;28;20608;-70
2022/05/05 08:28:27;;;;;;;4.70;2.28;;;;;;;21.46;35.55;102289.78;5025380;28;20061;-70
2022/05/05 08:29:23;;;;;;;8.15;3.47;;;;;;;21.45;35.46;102287.28;5024867;28;20037;-70
2022/05/05 08:31:49;;;;;;;3.22;2.10;;;;;;;21.38;35.66;102282.63;5041026;28;20045;-68
2022/05/05 08:34:15;;;;;;;4.43;2.15;;;;;;;21.44;35.60;102285.63;5040569;28;20696;-69
2022/05/05 08:36:40;;;;;;;2.22;2.03;;;;;;;21.46;35.53;102281.00;5040184;28;20041;-70
2022/05/05 08:39:06;;;;;;;5.82;2.50;;;;;;;21.49;35.37;102293.94;5036681;28;20444;-69
2022/05/05 08:41:33;;;;;;;4.38;2.30;;;;;;;21.43;35.51;102284.81;5022364;28;20053;-70
2022/05/05 08:44:00;;;;;;;7.18;2.53;;;;;;;21.35;35.86;102292.69;5035382;28;20403;-70
2022/05/05 08:46:27;;;;;;;2.28;1.90;;;;;;;21.35;36.23;102285.56;5035983;28;20025;-66
2022/05/05 08:49:01;;;;;;;3.65;2.45;;;;;;;21.43;35.90;102290.09;5041730;28;20066;-71
2022/05/05 08:51:34;;;;;;;7.20;2.40;;;;;;;21.36;35.73;102283.75;5042568;28;20105;-71
2022/05/05 08:54:04;;;;;;;3.03;2.15;;;;;;;21.47;35.95;102287.97;5046912;28;20041;-72
2022/05/05 08:56:29;;;;;;;5.47;3.08;;;;;;;21.50;35.92;102274.41;5045640;28;20068;-71
2022/05/05 08:58:55;;;;;;;3.88;2.70;;;;;;;21.58;35.82;102285.91;5045543;28;20242;-71
2022/05/05 09:01:21;;;;;;;5.00;2.83;;;;;;;21.51;35.92;102287.50;5041021;28;20042;-71
2022/05/05 09:03:46;;;;;;;3.70;2.53;;;;;;;21.49;35.96;102296.59;5040316;28;20043;-71
2022/05/05 09:06:11;;;;;;;6.00;2.67;;;;;;;21.51;35.86;102290.16;5035784;28;20037;-71
2022/05/05 09:08:37;;;;;;;5.50;2.50;;;;;;;21.52;35.80;102289.16;5034156;28;21871;-70
2022/05/05 09:11:06;;;;;;;3.67;2.30;;;;;;;21.40;36.46;102293.91;5035969;28;20088;-71
2022/05/05 09:13:37;;;;;;;6.82;2.33;;;;;;;21.48;36.13;102295.75;5039378;28;20781;-71
2022/05/05 09:16:04;;;;;;;5.00;2.85;;;;;;;21.37;36.53;102293.38;5033365;28;20458;-71
2022/05/05 09:18:32;;;;;;;3.30;2.55;;;;;;;21.36;36.41;102299.63;5051451;28;20054;-71
2022/05/05 09:21:00;;;;;;;3.92;2.40;;;;;;;21.35;36.34;102297.97;5014188;28;20080;-71
2022/05/05 09:26:26;;;;;;;3.33;2.60;;;;;;;21.36;36.33;102310.22;5038488;28;20041;-71
2022/05/05 09:28:51;;;;;;;2.58;2.22;;;;;;;21.27;36.35;102295.28;5040570;28;20036;-70
2022/05/05 09:31:17;;;;;;;4.35;2.35;;;;;;;21.42;36.12;102307.81;5010746;28;20113;-70
2022/05/05 09:33:44;;;;;;;4.03;2.42;;;;;;;21.38;36.10;102303.81;5040852;28;20036;-71
2022/05/05 09:36:24;;;;;;;5.35;2.83;;;;;;;21.33;36.05;102303.44;5043133;28;20041;-71
2022/05/05 09:38:57;;;;;;;3.40;2.38;;;;;;;21.32;36.16;102307.06;5039501;28;20171;-71
2022/05/05 09:41:34;;;;;;;3.63;2.40;;;;;;;21.39;36.29;102317.91;5037776;28;20051;-71
2022/05/05 09:44:11;;;;;;;4.82;2.80;;;;;;;21.40;36.09;102315.09;5042196;28;20904;-71
2022/05/05 09:46:37;;;;;;;3.08;2.00;;;;;;;21.34;36.35;102314.88;5038554;28;20375;-71
2022/05/05 09:49:08;;;;;;;3.90;2.50;;;;;;;21.28;36.11;102299.59;5034311;28;20028;-72
2022/05/05 09:51:45;;;;;;;2.92;2.45;;;;;;;21.36;36.34;102315.53;5039510;28;20040;-72
2022/05/05 09:59:47;;;;;;;3.42;2.40;;;;;;;21.34;36.19;102307.75;5034818;28;20906;-71
2022/05/05 10:04:00;;;;;;;4.90;2.30;;;;;;;21.40;36.28;102304.50;5038753;28;20074;-71
2022/05/05 10:05:08;;;;;;;4.38;2.42;;;;;;;21.47;36.27;102319.78;5043368;28;20037;-71
2022/05/05 10:07:38;;;;;;;3.13;2.40;;;;;;;21.47;36.44;102317.94;5039757;28;20047;-71
2022/05/05 10:10:06;;;;;;;2.83;2.10;;;;;;;21.51;36.39;102311.34;5037096;28;20391;-72
2022/05/05 10:12:33;;;;;;;3.70;2.55;;;;;;;21.58;36.26;102320.38;5039034;28;20032;-72
2022/05/05 10:14:59;;;;;;;3.72;2.20;;;;;;;21.57;36.26;102324.00;5021765;28;20253;-72
2022/05/05 10:17:28;;;;;;;3.80;2.50;;;;;;;21.62;35.83;102324.34;5030298;28;20036;-71
2022/05/05 10:19:53;;;;;;;2.38;2.13;;;;;;;21.65;36.03;102328.50;5032863;28;20256;-71
2022/05/05 10:22:33;;;;;;;2.60;2.25;;;;;;;21.65;36.23;102326.69;5029196;28;20208;-71
2022/05/05 10:25:09;;;;;;;2.40;2.08;;;;;;;21.65;36.21;102325.88;5038121;28;20106;-71
2022/05/05 10:27:42;;;;;;;2.53;2.20;;;;;;;21.58;36.14;102311.56;5037080;28;20048;-71
2022/05/05 10:30:14;;;;;;;3.45;2.47;;;;;;;21.60;35.91;102310.44;5033097;28;20036;-71
2022/05/05 10:32:40;;;;;;;2.55;2.35;;;;;;;21.62;36.00;102321.72;5040718;28;20096;-71
2022/05/05 10:35:12;;;;;;;2.35;2.15;;;;;;;21.63;36.11;102322.53;5038068;28;20040;-71
2022/05/05 10:37:38;;;;;;;2.67;2.30;;;;;;;21.63;36.18;102318.06;5039397;28;20404;-71
2022/05/05 10:40:08;;;;;;;3.08;2.33;;;;;;;21.61;36.11;102322.69;5036368;28;21155;-71
2022/05/05 10:42:42;;;;;;;;;;;;;;;21.62;36.05;102318.22;5043347;28;20048;-71
2022/05/05 10:45:10;;;;;;;4.32;2.42;;;;;;;21.58;35.96;102317.72;5040889;28;20587;-71
2022/05/05 10:48:06;;;;;;;4.13;2.58;;;;;;;21.58;35.99;102319.53;5044986;28;20570;-71
2022/05/05 10:50:56;;;;;;;2.88;2.42;;;;;;;21.55;36.10;102322.50;5042389;28;20086;-72
2022/05/05 10:53:36;;;;;;;4.18;2.50;;;;;;;21.42;36.30;102310.47;5039565;28;20037;-71
2022/05/05 10:56:05;;;;;;;2.83;2.53;;;;;;;21.48;36.09;102322.25;5038482;28;20513;-71
2022/05/05 10:58:55;;;;;;;3.03;2.35;;;;;;;21.48;36.16;102334.69;5042529;28;20471;-71
2022/05/05 11:01:20;;;;;;;5.38;2.58;;;;;;;21.48;36.09;102332.88;5039836;28;20728;-71
2022/05/05 11:04:28;;;;;;;3.30;2.42;;;;;;;21.48;36.16;102330.22;5043675;28;20036;-71
2022/05/05 11:07:25;;;;;;;3.67;2.60;;;;;;;21.45;36.12;102333.19;5040619;28;20036;-72
2022/05/05 11:09:50;;;;;;;2.58;2.30;;;;;;;21.39;36.13;102331.16;5042779;28;20045;-72
2022/05/05 11:12:22;;;;;;;3.38;2.55;;;;;;;21.42;36.12;102336.13;5032743;28;20037;-72
2022/05/05 11:23:32;;;;;;;3.00;2.40;;;;;;;21.33;36.37;102343.19;5034542;28;20032;-71
2022/05/05 11:26:00;;;;;;;2.63;2.40;;;;;;;21.37;36.37;102336.59;5042413;28;20714;-71
2022/05/05 11:28:27;;;;;;;3.20;2.70;;;;;;;21.38;36.34;102332.16;5037560;28;20033;-72
2022/05/05 11:30:53;;;;;;;3.38;2.50;;;;;;;21.40;36.28;102327.53;5041957;28;20830;-71
2022/05/05 11:33:19;;;;;;;3.90;2.40;;;;;;;21.36;36.18;102321.69;5047571;28;20066;-72
2022/05/05 11:35:56;;;;;;;3.88;2.60;;;;;;;21.41;36.24;102335.31;5044632;28;20041;-71
2022/05/05 11:38:24;;;;;;;2.58;2.35;;;;;;;21.36;36.33;102334.09;5043260;28;20041;-71
2022/05/05 11:41:04;;;;;;;3.83;2.58;;;;;;;21.47;36.08;102336.50;5043937;28;20037;-71
2022/05/05 11:46:16;;;;;;;3.40;2.58;;;;;;;21.53;36.08;102343.00;5040376;28;20120;-72
2022/05/05 11:48:53;;;;;;;3.22;2.50;;;;;;;21.59;35.99;102334.44;5039996;28;20426;-72
2022/05/05 11:51:27;;;;;;;3.60;2.55;;;;;;;21.52;36.04;102320.97;5037654;28;20032;-72
2022/05/05 11:54:08;;;;;;;4.68;2.42;;;;;;;21.57;36.28;102336.44;5041741;28;20197;-71
2022/05/05 11:56:36;;;;;;;2.97;2.40;;;;;;;21.62;36.35;102337.63;5038914;28;20138;-72
2022/05/05 12:02:19;;;;;;;4.10;2.60;;;;;;;21.73;35.99;102319.78;5036571;28;20142;-72
2022/05/05 12:04:52;;;;;;;3.58;2.60;;;;;;;21.75;36.05;102326.59;5026482;28;20124;-72
2022/05/05 12:07:20;;;;;;;3.10;2.35;;;;;;;21.78;36.23;102307.72;5039718;28;20036;-72